Time,TemperatureF,DewpointF,PressureIn,WindDirection,WindDirectionDegrees,WindSpeedMPH,WindSpeedGustMPH,Humidity,HourlyPrecipIn,Conditions,Clouds,dailyrainin,SoftwareType,DateUTC
2013-06-21 00:04:00,79.3,57.9,29.99,NNW,338,0.0,0.0,48,0.00,,,0.00,VWS V14.01,2013-06-20 21:04:00,
2013-06-21 00:09:00,79.3,57.9,29.99,North,0,2.0,2.0,48,0.00,,,0.00,VWS V14.01,2013-06-20 21:09:00,
2013-06-21 00:14:00,79.0,57.6,29.99,NNE,22,0.0,0.0,48,0.00,,,0.00,VWS V14.01,2013-06-20 21:14:00,
2013-06-21 00:19:00,79.0,57.6,29.99,NW,315,4.2,4.2,48,0.00,,,0.00,VWS V14.01,2013-06-20 21:19:00,
2013-06-21 00:24:00,79.0,57.6,29.98,NE,45,3.1,4.4,48,0.00,,,0.00,VWS V14.01,2013-06-20 21:24:00,
2013-06-21 00:29:00,79.0,57.6,29.98,NNE,22,4.6,4.6,48,0.00,,,0.00,VWS V14.01,2013-06-20 21:29:00,
2013-06-21 00:34:00,79.0,57.6,29.98,North,0,2.6,2.6,48,0.00,,,0.00,VWS V14.01,2013-06-20 21:34:00,
2013-06-21 00:39:00,78.8,57.4,29.99,NNE,22,4.9,4.9,48,0.00,,,0.00,VWS V14.01,2013-06-20 21:39:00,
2013-06-21 00:45:00,78.8,57.4,29.98,NNE,22,6.0,6.0,48,0.00,,,0.00,VWS V14.01,2013-06-20 21:45:00,
2013-06-21 00:50:00,78.8,57.4,29.98,NNW,338,0.6,2.9,48,0.00,,,0.00,VWS V14.01,2013-06-20 21:50:00,
2013-06-21 00:55:00,78.6,57.2,29.98,NE,45,1.5,1.5,48,0.00,,,0.00,VWS V14.01,2013-06-20 21:55:00,
2013-06-21 01:00:00,78.4,57.1,29.98,NE,45,4.2,4.2,48,0.00,,,0.00,VWS V14.01,2013-06-20 22:00:00,
2013-06-21 01:05:00,78.4,57.1,29.98,North,0,2.2,2.2,48,0.00,,,0.00,VWS V14.01,2013-06-20 22:05:00,
2013-06-21 01:10:00,78.3,57.0,29.98,NNE,22,12.3,12.3,48,0.00,,,0.00,VWS V14.01,2013-06-20 22:10:00,
2013-06-21 01:15:00,78.3,57.0,29.98,NNE,22,2.0,2.0,48,0.00,,,0.00,VWS V14.01,2013-06-20 22:15:00,
2013-06-21 01:20:00,78.4,57.1,29.98,NNE,22,5.5,5.5,48,0.00,,,0.00,VWS V14.01,2013-06-20 22:20:00,
2013-06-21 01:25:00,78.3,57.0,29.98,NNE,22,7.1,7.1,48,0.00,,,0.00,VWS V14.01,2013-06-20 22:25:00,
2013-06-21 01:30:00,78.3,57.0,29.98,NNE,22,1.5,6.7,48,0.00,,,0.00,VWS V14.01,2013-06-20 22:30:00,
2013-06-21 01:35:00,78.1,57.4,29.98,NNE,22,1.3,2.4,49,0.00,,,0.00,VWS V14.01,2013-06-20 22:35:00,
2013-06-21 01:40:00,78.1,57.4,29.98,North,0,2.2,2.2,49,0.00,,,0.00,VWS V14.01,2013-06-20 22:40:00,
2013-06-21 01:45:00,78.1,57.4,29.98,NNE,22,0.8,0.8,49,0.00,,,0.00,VWS V14.01,2013-06-20 22:45:00,
2013-06-21 01:50:00,78.1,57.4,29.97,NNW,338,3.8,3.8,49,0.00,,,0.00,VWS V14.01,2013-06-20 22:50:00,
2013-06-21 01:55:00,78.1,57.4,29.97,NNE,22,12.0,12.0,49,0.00,,,0.00,VWS V14.01,2013-06-20 22:55:00,
2013-06-21 02:00:00,78.1,56.8,29.97,NE,45,7.1,7.1,48,0.00,,,0.00,VWS V14.01,2013-06-20 23:00:00,
2013-06-21 02:05:00,78.1,56.2,29.97,North,0,9.6,9.6,47,0.00,,,0.00,VWS V14.01,2013-06-20 23:05:00,
2013-06-21 02:10:00,78.1,55.6,29.97,NNE,22,6.4,11.6,46,0.00,,,0.00,VWS V14.01,2013-06-20 23:10:00,
2013-06-21 02:16:00,78.1,55.6,29.97,North,0,1.3,1.3,46,0.00,,,0.00,VWS V14.01,2013-06-20 23:16:00,
2013-06-21 02:21:00,78.1,55.6,29.97,WNW,292,3.1,3.1,46,0.00,,,0.00,VWS V14.01,2013-06-20 23:21:00,
2013-06-21 02:26:00,78.1,55.0,29.97,North,0,4.9,4.9,45,0.00,,,0.00,VWS V14.01,2013-06-20 23:26:00,
2013-06-21 02:31:00,78.1,55.0,29.97,NNW,338,1.7,3.1,45,0.00,,,0.00,VWS V14.01,2013-06-20 23:31:00,
2013-06-21 02:36:00,78.1,54.4,29.97,NW,315,0.4,0.4,44,0.00,,,0.00,VWS V14.01,2013-06-20 23:36:00,
2013-06-21 02:41:00,77.9,54.2,29.97,NNW,338,16.3,16.3,44,0.00,,,0.00,VWS V14.01,2013-06-20 23:41:00,
2013-06-21 02:46:00,77.9,53.6,29.97,NNW,338,5.3,6.7,43,0.00,,,0.00,VWS V14.01,2013-06-20 23:46:00,
2013-06-21 02:51:00,77.9,53.0,29.96,WNW,292,7.6,12.3,42,0.00,,,0.00,VWS V14.01,2013-06-20 23:51:00,
2013-06-21 02:56:00,77.9,53.6,29.96,North,0,0.6,0.6,43,0.00,,,0.00,VWS V14.01,2013-06-20 23:56:00,
2013-06-21 03:01:00,78.1,53.1,29.96,NW,315,11.8,11.8,42,0.00,,,0.00,VWS V14.01,2013-06-21 00:01:00,
2013-06-21 03:06:00,78.1,53.8,29.96,North,0,9.3,9.8,43,0.00,,,0.00,VWS V14.01,2013-06-21 00:06:00,
2013-06-21 03:11:00,78.1,53.1,29.96,NNW,338,13.8,13.8,42,0.00,,,0.00,VWS V14.01,2013-06-21 00:11:00,
2013-06-21 03:16:00,78.1,52.5,29.96,NNW,338,8.2,8.7,41,0.00,,,0.00,VWS V14.01,2013-06-21 00:16:00,
2013-06-21 03:21:00,78.3,52.7,29.96,NNE,22,12.7,12.7,41,0.00,,,0.00,VWS V14.01,2013-06-21 00:21:00,
2013-06-21 03:26:00,78.1,53.1,29.96,West,270,5.8,5.8,42,0.00,,,0.00,VWS V14.01,2013-06-21 00:26:00,
2013-06-21 03:31:00,77.9,53.0,29.96,North,0,10.7,10.7,42,0.00,,,0.00,VWS V14.01,2013-06-21 00:31:00,
2013-06-21 03:36:00,77.9,52.3,29.96,NNW,338,13.4,13.4,41,0.00,,,0.00,VWS V14.01,2013-06-21 00:36:00,
2013-06-21 03:41:00,77.9,53.0,29.96,NW,315,4.2,4.2,42,0.00,,,0.00,VWS V14.01,2013-06-21 00:41:00,
2013-06-21 03:46:00,77.7,52.8,29.96,NW,315,13.4,13.4,42,0.00,,,0.00,VWS V14.01,2013-06-21 00:46:00,
2013-06-21 03:51:00,77.5,51.9,29.96,North,0,6.7,6.7,41,0.00,,,0.00,VWS V14.01,2013-06-21 00:51:00,
2013-06-21 03:56:00,77.5,51.3,29.96,NNW,338,12.0,12.9,40,0.00,,,0.00,VWS V14.01,2013-06-21 00:56:00,
2013-06-21 04:01:00,77.7,50.1,29.96,North,0,17.8,17.8,38,0.00,,,0.00,VWS V14.01,2013-06-21 01:01:00,
2013-06-21 04:07:00,77.9,50.9,29.96,North,0,13.6,13.6,39,0.00,,,0.00,VWS V14.01,2013-06-21 01:07:00,
2013-06-21 04:12:00,77.7,52.1,29.96,NNW,338,14.9,14.9,41,0.00,,,0.00,VWS V14.01,2013-06-21 01:12:00,
2013-06-21 04:17:00,77.7,52.8,29.96,North,0,6.7,7.8,42,0.00,,,0.00,VWS V14.01,2013-06-21 01:17:00,
2013-06-21 04:22:00,77.2,53.0,29.96,North,0,6.4,6.4,43,0.00,,,0.00,VWS V14.01,2013-06-21 01:22:00,
2013-06-21 04:27:00,77.2,50.3,29.96,North,0,11.4,16.5,39,0.00,,,0.00,VWS V14.01,2013-06-21 01:27:00,
2013-06-21 04:32:00,77.5,50.6,29.96,North,0,4.2,10.7,39,0.00,,,0.00,VWS V14.01,2013-06-21 01:32:00,
2013-06-21 04:37:00,77.2,50.3,29.96,North,0,12.0,12.0,39,0.00,,,0.00,VWS V14.01,2013-06-21 01:37:00,
2013-06-21 04:42:00,77.2,51.0,29.96,NNW,338,2.9,2.9,40,0.00,,,0.00,VWS V14.01,2013-06-21 01:42:00,
2013-06-21 04:47:00,77.2,50.3,29.96,NNW,338,6.7,7.1,39,0.00,,,0.00,VWS V14.01,2013-06-21 01:47:00,
2013-06-21 04:52:00,77.2,50.3,29.96,NNW,338,8.0,8.0,39,0.00,,,0.00,VWS V14.01,2013-06-21 01:52:00,
2013-06-21 04:57:00,77.2,50.3,29.96,NNE,22,0.0,0.0,39,0.00,,,0.00,VWS V14.01,2013-06-21 01:57:00,
2013-06-21 05:02:00,77.0,50.8,29.97,NNW,338,8.2,8.2,40,0.00,,,0.00,VWS V14.01,2013-06-21 02:02:00,
2013-06-21 05:07:00,77.0,51.5,29.97,NNW,338,5.5,5.5,41,0.00,,,0.00,VWS V14.01,2013-06-21 02:07:00,
2013-06-21 05:12:00,77.0,51.5,29.96,NW,315,8.5,8.5,41,0.00,,,0.00,VWS V14.01,2013-06-21 02:12:00,
2013-06-21 05:17:00,77.0,52.1,29.97,NNW,338,9.1,9.1,42,0.00,,,0.00,VWS V14.01,2013-06-21 02:17:00,
2013-06-21 05:22:00,77.0,52.1,29.96,North,0,11.8,11.8,42,0.00,,,0.00,VWS V14.01,2013-06-21 02:22:00,
2013-06-21 05:27:00,76.6,51.8,29.96,NNW,338,7.1,8.2,42,0.00,,,0.00,VWS V14.01,2013-06-21 02:27:00,
2013-06-21 05:32:00,76.6,52.4,29.96,NNW,338,9.3,9.3,43,0.00,,,0.00,VWS V14.01,2013-06-21 02:32:00,
2013-06-21 05:37:00,76.6,52.4,29.97,North,0,7.3,9.8,43,0.00,,,0.00,VWS V14.01,2013-06-21 02:37:00,
2013-06-21 05:42:00,76.6,52.4,29.96,NW,315,4.0,4.0,43,0.00,,,0.00,VWS V14.01,2013-06-21 02:42:00,
2013-06-21 05:47:00,76.3,52.8,29.96,North,0,6.4,6.4,44,0.00,,,0.00,VWS V14.01,2013-06-21 02:47:00,
2013-06-21 05:53:00,76.1,52.6,29.96,NNW,338,2.4,2.4,44,0.00,,,0.00,VWS V14.01,2013-06-21 02:53:00,
2013-06-21 05:58:00,76.1,52.6,29.97,NW,315,2.0,2.9,44,0.00,,,0.00,VWS V14.01,2013-06-21 02:58:00,
2013-06-21 06:03:00,75.7,52.8,29.97,West,270,1.3,1.3,45,0.00,,,0.00,VWS V14.01,2013-06-21 03:03:00,
2013-06-21 06:08:00,75.6,52.8,29.97,NNW,338,4.9,4.9,45,0.00,,,0.00,VWS V14.01,2013-06-21 03:08:00,
2013-06-21 06:13:00,75.7,53.4,29.97,West,270,4.6,6.4,46,0.00,,,0.00,VWS V14.01,2013-06-21 03:13:00,
2013-06-21 06:18:00,75.7,53.4,29.97,WNW,292,1.7,1.7,46,0.00,,,0.00,VWS V14.01,2013-06-21 03:18:00,
2013-06-21 06:23:00,75.7,53.4,29.97,WNW,292,1.7,1.7,46,0.00,,,0.00,VWS V14.01,2013-06-21 03:23:00,
2013-06-21 06:28:00,75.6,53.3,29.97,NNW,338,2.6,2.6,46,0.00,,,0.00,VWS V14.01,2013-06-21 03:28:00,
2013-06-21 06:33:00,75.7,53.4,29.97,North,0,0.0,0.0,46,0.00,,,0.00,VWS V14.01,2013-06-21 03:33:00,
2013-06-21 06:38:00,75.7,53.4,29.97,NNW,338,0.0,0.0,46,0.00,,,0.00,VWS V14.01,2013-06-21 03:38:00,
2013-06-21 06:43:00,75.7,53.4,29.97,NNW,338,0.0,0.0,46,0.00,,,0.00,VWS V14.01,2013-06-21 03:43:00,
2013-06-21 06:48:00,75.9,53.6,29.96,WNW,292,0.0,2.6,46,0.00,,,0.00,VWS V14.01,2013-06-21 03:48:00,
2013-06-21 06:53:00,75.9,53.6,29.97,NNW,338,3.1,3.1,46,0.00,,,0.00,VWS V14.01,2013-06-21 03:53:00,
2013-06-21 06:58:00,75.9,53.6,29.96,NNW,338,3.8,3.8,46,0.00,,,0.00,VWS V14.01,2013-06-21 03:58:00,
2013-06-21 07:01:00,76.1,53.8,29.96,NW,315,5.1,5.1,46,0.00,,,0.00,VWS V14.01,2013-06-21 04:01:00,
2013-06-21 07:02:00,76.1,53.8,29.96,NW,315,5.1,5.1,46,0.00,,,0.00,VWS V14.01,2013-06-21 04:02:00,
2013-06-21 07:06:00,76.1,54.4,29.96,WSW,248,4.9,5.5,47,0.00,,,0.00,VWS V14.01,2013-06-21 04:06:00,
2013-06-21 07:09:00,76.3,54.6,29.96,NNW,338,2.9,5.1,47,0.00,,,0.00,VWS V14.01,2013-06-21 04:09:00,
2013-06-21 07:14:00,76.5,54.2,29.96,NW,315,0.0,0.0,46,0.00,,,0.00,VWS V14.01,2013-06-21 04:14:00,
2013-06-21 07:19:00,76.5,54.2,29.97,WNW,292,4.9,4.9,46,0.00,,,0.00,VWS V14.01,2013-06-21 04:19:00,
2013-06-21 07:24:00,76.6,54.3,29.96,NNW,338,3.3,6.4,46,0.00,,,0.00,VWS V14.01,2013-06-21 04:24:00,
2013-06-21 07:30:00,76.8,54.4,29.97,WNW,292,1.7,1.7,46,0.00,,,0.00,VWS V14.01,2013-06-21 04:30:00,
2013-06-21 07:35:00,77.0,54.0,29.96,WNW,292,0.2,0.2,45,0.00,,,0.00,VWS V14.01,2013-06-21 04:35:00,
2013-06-21 07:40:00,77.0,54.6,29.97,North,0,5.1,5.1,46,0.00,,,0.00,VWS V14.01,2013-06-21 04:40:00,
2013-06-21 07:45:00,77.0,54.6,29.97,North,0,0.0,0.0,46,0.00,,,0.00,VWS V14.01,2013-06-21 04:45:00,
2013-06-21 07:50:00,77.2,54.2,29.97,NNE,22,9.3,9.3,45,0.00,,,0.00,VWS V14.01,2013-06-21 04:50:00,
2013-06-21 07:55:00,77.2,54.8,29.97,North,0,4.4,12.7,46,0.00,,,0.00,VWS V14.01,2013-06-21 04:55:00,
2013-06-21 08:00:00,77.5,55.1,29.97,NNW,338,4.9,5.1,46,0.00,,,0.00,VWS V14.01,2013-06-21 05:00:00,
2013-06-21 08:05:00,77.7,55.3,29.97,NNW,338,7.8,7.8,46,0.00,,,0.00,VWS V14.01,2013-06-21 05:05:00,
2013-06-21 08:10:00,77.9,54.8,29.97,NNW,338,14.9,14.9,45,0.00,,,0.00,VWS V14.01,2013-06-21 05:10:00,
2013-06-21 08:15:00,77.9,54.8,29.97,NNW,338,6.2,6.2,45,0.00,,,0.00,VWS V14.01,2013-06-21 05:15:00,
2013-06-21 08:20:00,78.1,55.6,29.97,NNE,22,1.5,1.5,46,0.00,,,0.00,VWS V14.01,2013-06-21 05:20:00,
2013-06-21 08:25:00,78.4,55.3,29.97,North,0,5.8,5.8,45,0.00,,,0.00,VWS V14.01,2013-06-21 05:25:00,
2013-06-21 08:30:00,78.8,55.7,29.97,NW,315,2.9,2.9,45,0.00,,,0.00,VWS V14.01,2013-06-21 05:30:00,
2013-06-21 08:35:00,78.8,55.7,29.97,NNW,338,4.9,4.9,45,0.00,,,0.00,VWS V14.01,2013-06-21 05:35:00,
2013-06-21 08:40:00,78.6,55.5,29.97,NNW,338,10.9,10.9,45,0.00,,,0.00,VWS V14.01,2013-06-21 05:40:00,
2013-06-21 08:45:00,78.8,55.0,29.97,North,0,9.8,9.8,44,0.00,,,0.00,VWS V14.01,2013-06-21 05:45:00,
2013-06-21 08:50:00,79.0,55.8,29.97,NNW,338,4.0,4.0,45,0.00,,,0.00,VWS V14.01,2013-06-21 05:50:00,
2013-06-21 08:56:00,79.3,55.5,29.97,NNW,338,6.0,6.4,44,0.00,,,0.00,VWS V14.01,2013-06-21 05:56:00,
2013-06-21 09:01:00,79.3,55.5,29.97,NNW,338,12.5,13.4,44,0.00,,,0.00,VWS V14.01,2013-06-21 06:01:00,
2013-06-21 09:06:00,79.3,54.8,29.98,NNW,338,19.4,19.4,43,0.00,,,0.00,VWS V14.01,2013-06-21 06:06:00,
2013-06-21 09:11:00,79.5,55.0,29.97,NNE,22,5.1,6.0,43,0.00,,,0.00,VWS V14.01,2013-06-21 06:11:00,
2013-06-21 09:16:00,79.9,54.8,29.98,North,0,10.2,16.3,42,0.00,,,0.00,VWS V14.01,2013-06-21 06:16:00,
2013-06-21 09:21:00,79.9,54.8,29.98,North,0,8.9,8.9,42,0.00,,,0.00,VWS V14.01,2013-06-21 06:21:00,
2013-06-21 09:26:00,79.9,54.8,29.98,NNW,338,1.3,1.3,42,0.00,,,0.00,VWS V14.01,2013-06-21 06:26:00,
2013-06-21 09:31:00,80.2,55.0,29.98,NNE,22,9.3,9.3,42,0.00,,,0.00,VWS V14.01,2013-06-21 06:31:00,
2013-06-21 09:36:00,80.2,54.3,29.98,NNW,338,13.4,13.4,41,0.00,,,0.00,VWS V14.01,2013-06-21 06:36:00,
2013-06-21 09:41:00,80.4,54.5,29.98,NNE,22,12.7,12.7,41,0.00,,,0.00,VWS V14.01,2013-06-21 06:41:00,
2013-06-21 09:46:00,80.6,54.7,29.98,NNW,338,5.1,5.1,41,0.00,,,0.00,VWS V14.01,2013-06-21 06:46:00,
2013-06-21 09:51:00,80.8,54.2,29.98,NNW,338,14.0,14.0,40,0.00,,,0.00,VWS V14.01,2013-06-21 06:51:00,
2013-06-21 09:56:00,80.6,54.7,29.98,NNW,338,12.7,12.7,41,0.00,,,0.00,VWS V14.01,2013-06-21 06:56:00,
2013-06-21 10:01:00,80.8,54.2,29.98,NNE,22,2.9,6.7,40,0.00,,,0.00,VWS V14.01,2013-06-21 07:01:00,
2013-06-21 10:06:00,81.1,54.5,29.98,NNE,22,7.8,8.0,40,0.00,,,0.00,VWS V14.01,2013-06-21 07:06:00,
2013-06-21 10:11:00,81.1,54.5,29.98,NE,45,9.8,10.9,40,0.00,,,0.00,VWS V14.01,2013-06-21 07:11:00,
2013-06-21 10:16:00,81.1,54.5,29.98,NNE,22,8.5,10.2,40,0.00,,,0.00,VWS V14.01,2013-06-21 07:16:00,
2013-06-21 10:21:00,81.5,54.8,29.98,NNW,338,10.2,10.5,40,0.00,,,0.00,VWS V14.01,2013-06-21 07:21:00,
2013-06-21 10:27:00,81.5,54.8,29.99,NNW,338,8.0,14.3,40,0.00,,,0.00,VWS V14.01,2013-06-21 07:27:00,
2013-06-21 10:32:00,81.7,55.0,29.98,North,0,10.2,10.2,40,0.00,,,0.00,VWS V14.01,2013-06-21 07:32:00,
2013-06-21 10:37:00,81.5,54.2,29.99,NNW,338,10.2,16.3,39,0.00,,,0.00,VWS V14.01,2013-06-21 07:37:00,
2013-06-21 10:42:00,81.1,54.5,29.98,North,0,2.6,2.6,40,0.00,,,0.00,VWS V14.01,2013-06-21 07:42:00,
2013-06-21 10:47:00,81.1,53.8,29.99,North,0,15.8,17.8,39,0.00,,,0.00,VWS V14.01,2013-06-21 07:47:00,
2013-06-21 10:52:00,81.3,54.7,29.99,NNE,22,11.8,11.8,40,0.00,,,0.00,VWS V14.01,2013-06-21 07:52:00,
2013-06-21 10:57:00,81.5,54.2,29.99,North,0,13.6,13.6,39,0.00,,,0.00,VWS V14.01,2013-06-21 07:57:00,
2013-06-21 11:02:00,81.3,54.0,29.99,NE,45,16.3,16.3,39,0.00,,,0.00,VWS V14.01,2013-06-21 08:02:00,
2013-06-21 11:07:00,81.7,54.3,29.99,NE,45,17.0,17.0,39,0.00,,,0.00,VWS V14.01,2013-06-21 08:07:00,
2013-06-21 11:12:00,81.3,54.7,29.99,NNE,22,10.0,10.0,40,0.00,,,0.00,VWS V14.01,2013-06-21 08:12:00,
2013-06-21 11:17:00,81.7,55.0,29.99,NNW,338,12.9,14.9,40,0.00,,,0.00,VWS V14.01,2013-06-21 08:17:00,
2013-06-21 11:22:00,81.9,55.2,29.99,NE,45,8.7,8.7,40,0.00,,,0.00,VWS V14.01,2013-06-21 08:22:00,
2013-06-21 11:27:00,81.7,55.0,29.99,NNE,22,9.3,9.3,40,0.00,,,0.00,VWS V14.01,2013-06-21 08:27:00,
2013-06-21 11:32:00,81.5,55.5,29.98,NNE,22,5.8,5.8,41,0.00,,,0.00,VWS V14.01,2013-06-21 08:32:00,
2013-06-21 11:37:00,82.4,55.6,29.98,North,0,20.1,20.1,40,0.00,,,0.00,VWS V14.01,2013-06-21 08:37:00,
2013-06-21 11:42:00,82.4,55.6,29.98,ENE,68,10.7,10.7,40,0.00,,,0.00,VWS V14.01,2013-06-21 08:42:00,
2013-06-21 11:47:00,82.9,56.1,29.98,NNE,22,6.2,6.2,40,0.00,,,0.00,VWS V14.01,2013-06-21 08:47:00,
2013-06-21 11:52:00,83.1,56.3,29.98,North,0,10.7,10.7,40,0.00,,,0.00,VWS V14.01,2013-06-21 08:52:00,
2013-06-21 11:57:00,82.9,56.1,29.98,North,0,13.1,13.1,40,0.00,,,0.00,VWS V14.01,2013-06-21 08:57:00,
2013-06-21 12:03:00,83.5,56.6,29.98,NNE,22,7.6,7.6,40,0.00,,,0.00,VWS V14.01,2013-06-21 09:03:00,
2013-06-21 12:08:00,83.8,57.6,29.97,North,0,4.6,8.5,41,0.00,,,0.00,VWS V14.01,2013-06-21 09:08:00,
2013-06-21 12:13:00,84.0,57.1,29.97,North,0,13.4,13.4,40,0.00,,,0.00,VWS V14.01,2013-06-21 09:13:00,
2013-06-21 12:18:00,83.7,57.5,29.97,NNW,338,6.4,6.4,41,0.00,,,0.00,VWS V14.01,2013-06-21 09:18:00,
2013-06-21 12:23:00,83.7,56.8,29.97,NNE,22,15.8,20.5,40,0.00,,,0.00,VWS V14.01,2013-06-21 09:23:00,
2013-06-21 12:28:00,83.5,56.6,29.97,NNE,22,12.3,12.3,40,0.00,,,0.00,VWS V14.01,2013-06-21 09:28:00,
2013-06-21 12:33:00,83.3,57.1,29.97,NNE,22,8.5,8.5,41,0.00,,,0.00,VWS V14.01,2013-06-21 09:33:00,
2013-06-21 12:38:00,83.5,57.3,29.97,NNE,22,12.5,12.5,41,0.00,,,0.00,VWS V14.01,2013-06-21 09:38:00,
2013-06-21 12:43:00,83.7,56.8,29.97,NNE,22,21.4,21.4,40,0.00,,,0.00,VWS V14.01,2013-06-21 09:43:00,
2013-06-21 12:48:00,83.5,56.6,29.97,NNE,22,14.9,14.9,40,0.00,,,0.00,VWS V14.01,2013-06-21 09:48:00,
2013-06-21 12:53:00,83.7,57.5,29.96,NNE,22,8.9,12.5,41,0.00,,,0.00,VWS V14.01,2013-06-21 09:53:00,
2013-06-21 12:58:00,83.5,57.3,29.96,NNW,338,9.1,15.2,41,0.00,,,0.00,VWS V14.01,2013-06-21 09:58:00,
2013-06-21 13:03:00,83.5,56.6,29.96,NE,45,12.7,14.9,40,0.00,,,0.00,VWS V14.01,2013-06-21 10:03:00,
2013-06-21 13:08:00,84.2,57.2,29.96,NNE,22,13.6,14.3,40,0.00,,,0.00,VWS V14.01,2013-06-21 10:08:00,
2013-06-21 13:13:00,84.2,57.2,29.97,NNE,22,8.2,17.4,40,0.00,,,0.00,VWS V14.01,2013-06-21 10:13:00,
2013-06-21 13:18:00,84.2,57.2,29.97,NNE,22,8.9,11.8,40,0.00,,,0.00,VWS V14.01,2013-06-21 10:18:00,
2013-06-21 13:23:00,84.2,57.2,29.97,NE,45,8.2,12.5,40,0.00,,,0.00,VWS V14.01,2013-06-21 10:23:00,
2013-06-21 13:28:00,84.4,56.7,29.97,NNE,22,12.3,12.3,39,0.00,,,0.00,VWS V14.01,2013-06-21 10:28:00,
2013-06-21 13:33:00,84.4,56.7,29.96,NE,45,14.5,15.6,39,0.00,,,0.00,VWS V14.01,2013-06-21 10:33:00,
2013-06-21 13:38:00,84.6,56.9,29.96,NE,45,15.8,15.8,39,0.00,,,0.00,VWS V14.01,2013-06-21 10:38:00,
2013-06-21 13:44:00,84.4,57.4,29.96,North,0,10.2,13.4,40,0.00,,,0.00,VWS V14.01,2013-06-21 10:44:00,
2013-06-21 13:49:00,84.7,57.0,29.96,NNE,22,14.0,18.1,39,0.00,,,0.00,VWS V14.01,2013-06-21 10:49:00,
2013-06-21 13:54:00,84.4,56.7,29.96,NE,45,12.7,14.5,39,0.00,,,0.00,VWS V14.01,2013-06-21 10:54:00,
2013-06-21 13:59:00,84.4,56.7,29.96,NNW,338,15.4,15.4,39,0.00,,,0.00,VWS V14.01,2013-06-21 10:59:00,
2013-06-21 14:04:00,84.7,56.3,29.96,NE,45,13.8,13.8,38,0.00,,,0.00,VWS V14.01,2013-06-21 11:04:00,
2013-06-21 14:09:00,84.7,56.3,29.96,NNW,338,12.9,12.9,38,0.00,,,0.00,VWS V14.01,2013-06-21 11:09:00,
2013-06-21 14:14:00,84.9,56.5,29.96,North,0,5.3,5.3,38,0.00,,,0.00,VWS V14.01,2013-06-21 11:14:00,
2013-06-21 14:19:00,84.7,56.3,29.96,NNE,22,12.9,16.1,38,0.00,,,0.00,VWS V14.01,2013-06-21 11:19:00,
2013-06-21 14:24:00,84.7,56.3,29.96,NNE,22,13.4,13.4,38,0.00,,,0.00,VWS V14.01,2013-06-21 11:24:00,
2013-06-21 14:29:00,84.9,56.5,29.96,NNE,22,4.9,10.0,38,0.00,,,0.00,VWS V14.01,2013-06-21 11:29:00,
2013-06-21 14:34:00,85.1,56.6,29.96,NNW,338,8.5,15.2,38,0.00,,,0.00,VWS V14.01,2013-06-21 11:34:00,
2013-06-21 14:39:00,85.6,56.3,29.96,NNW,338,12.7,12.7,37,0.00,,,0.00,VWS V14.01,2013-06-21 11:39:00,
2013-06-21 14:44:00,85.6,56.3,29.96,North,0,9.6,14.9,37,0.00,,,0.00,VWS V14.01,2013-06-21 11:44:00,
2013-06-21 14:49:00,85.3,56.8,29.96,NE,45,1.1,1.1,38,0.00,,,0.00,VWS V14.01,2013-06-21 11:49:00,
2013-06-21 14:54:00,85.6,56.3,29.96,NNW,338,6.4,7.1,37,0.00,,,0.00,VWS V14.01,2013-06-21 11:54:00,
2013-06-21 14:59:00,85.1,56.6,29.96,NNW,338,17.2,18.1,38,0.00,,,0.00,VWS V14.01,2013-06-21 11:59:00,
2013-06-21 15:04:00,84.9,56.5,29.96,NE,45,5.3,9.6,38,0.00,,,0.00,VWS V14.01,2013-06-21 12:04:00,
2013-06-21 15:09:00,85.3,56.8,29.96,North,0,10.2,10.2,38,0.00,,,0.00,VWS V14.01,2013-06-21 12:09:00,
2013-06-21 15:14:00,85.3,56.8,29.96,NNW,338,9.8,9.8,38,0.00,,,0.00,VWS V14.01,2013-06-21 12:14:00,
2013-06-21 15:19:00,85.5,57.0,29.96,NW,315,1.1,5.8,38,0.00,,,0.00,VWS V14.01,2013-06-21 12:19:00,
2013-06-21 15:24:00,86.0,56.7,29.95,NNE,22,9.6,10.7,37,0.00,,,0.00,VWS V14.01,2013-06-21 12:24:00,
2013-06-21 15:29:00,85.8,58.0,29.95,NNE,22,6.0,6.0,39,0.00,,,0.00,VWS V14.01,2013-06-21 12:29:00,
2013-06-21 15:35:00,86.4,57.0,29.95,NNE,22,20.3,20.3,37,0.00,,,0.00,VWS V14.01,2013-06-21 12:35:00,
2013-06-21 15:40:00,86.0,57.4,29.95,NNE,22,8.0,11.4,38,0.00,,,0.00,VWS V14.01,2013-06-21 12:40:00,
2013-06-21 15:45:00,86.5,57.9,29.95,NNW,338,9.1,9.1,38,0.00,,,0.00,VWS V14.01,2013-06-21 12:45:00,
2013-06-21 15:50:00,86.0,57.4,29.95,NNW,338,10.7,12.9,38,0.00,,,0.00,VWS V14.01,2013-06-21 12:50:00,
2013-06-21 15:55:00,85.6,57.1,29.95,North,0,10.7,13.6,38,0.00,,,0.00,VWS V14.01,2013-06-21 12:55:00,
2013-06-21 16:00:00,85.3,56.8,29.95,North,0,17.0,17.0,38,0.00,,,0.00,VWS V14.01,2013-06-21 13:00:00,
2013-06-21 16:05:00,85.5,57.0,29.95,North,0,8.7,14.9,38,0.00,,,0.00,VWS V14.01,2013-06-21 13:05:00,
2013-06-21 16:10:00,85.6,57.1,29.94,North,0,14.0,14.0,38,0.00,,,0.00,VWS V14.01,2013-06-21 13:10:00,
2013-06-21 16:15:00,86.0,57.4,29.94,North,0,5.3,5.3,38,0.00,,,0.00,VWS V14.01,2013-06-21 13:15:00,
2013-06-21 16:20:00,86.0,56.7,29.94,North,0,0.2,5.5,37,0.00,,,0.00,VWS V14.01,2013-06-21 13:20:00,
2013-06-21 16:25:00,85.8,55.8,29.95,NNE,22,4.9,4.9,36,0.00,,,0.00,VWS V14.01,2013-06-21 13:25:00,
2013-06-21 16:30:00,85.6,56.3,29.94,NNE,22,10.9,10.9,37,0.00,,,0.00,VWS V14.01,2013-06-21 13:30:00,
2013-06-21 16:35:00,85.3,55.3,29.94,NNE,22,10.0,10.0,36,0.00,,,0.00,VWS V14.01,2013-06-21 13:35:00,
2013-06-21 16:40:00,84.7,54.8,29.94,NE,45,14.9,15.6,36,0.00,,,0.00,VWS V14.01,2013-06-21 13:40:00,
2013-06-21 16:45:00,84.6,55.5,29.94,NE,45,9.8,9.8,37,0.00,,,0.00,VWS V14.01,2013-06-21 13:45:00,
2013-06-21 16:50:00,84.4,55.3,29.94,North,0,8.7,8.7,37,0.00,,,0.00,VWS V14.01,2013-06-21 13:50:00,
2013-06-21 16:55:00,85.1,55.9,29.94,North,0,6.7,6.7,37,0.00,,,0.00,VWS V14.01,2013-06-21 13:55:00,
2013-06-21 17:01:00,85.3,55.3,29.94,NNE,22,0.0,3.3,36,0.00,,,0.00,VWS V14.01,2013-06-21 14:01:00,
2013-06-21 17:06:00,85.5,54.7,29.94,NNE,22,10.0,10.0,35,0.00,,,0.00,VWS V14.01,2013-06-21 14:06:00,
2013-06-21 17:11:00,84.9,55.7,29.94,NE,45,10.7,12.7,37,0.00,,,0.00,VWS V14.01,2013-06-21 14:11:00,
2013-06-21 17:16:00,84.7,55.5,29.94,NNE,22,7.3,7.3,37,0.00,,,0.00,VWS V14.01,2013-06-21 14:16:00,
2013-06-21 17:21:00,84.7,56.3,29.94,NE,45,12.9,12.9,38,0.00,,,0.00,VWS V14.01,2013-06-21 14:21:00,
2013-06-21 17:26:00,84.4,56.0,29.94,North,0,8.2,8.2,38,0.00,,,0.00,VWS V14.01,2013-06-21 14:26:00,
2013-06-21 17:31:00,84.2,55.8,29.94,NE,45,9.1,9.1,38,0.00,,,0.00,VWS V14.01,2013-06-21 14:31:00,
2013-06-21 17:36:00,83.5,53.0,29.94,NE,45,9.1,9.1,35,0.00,,,0.00,VWS V14.01,2013-06-21 14:36:00,
2013-06-21 17:41:00,83.5,47.9,29.94,East,90,12.7,12.7,29,0.00,,,0.00,VWS V14.01,2013-06-21 14:41:00,
2013-06-21 17:46:00,83.5,47.9,29.93,North,0,0.0,0.0,29,0.00,,,0.00,VWS V14.01,2013-06-21 14:46:00,
2013-06-21 17:52:00,83.8,48.2,29.93,NNE,22,0.0,0.0,29,0.00,,,0.00,VWS V14.01,2013-06-21 14:52:00,
2013-06-21 17:57:00,83.8,48.2,29.93,NE,45,9.6,9.6,29,0.00,,,0.00,VWS V14.01,2013-06-21 14:57:00,
2013-06-21 18:02:00,83.7,49.0,29.92,North,0,12.5,13.4,30,0.00,,,0.00,VWS V14.01,2013-06-21 15:02:00,
2013-06-21 18:08:00,83.5,50.5,29.93,NNE,22,14.3,14.3,32,0.00,,,0.00,VWS V14.01,2013-06-21 15:08:00,
2013-06-21 18:13:00,83.3,51.2,29.93,NNE,22,2.9,11.8,33,0.00,,,0.00,VWS V14.01,2013-06-21 15:13:00,
2013-06-21 18:19:00,83.5,52.2,29.93,NE,45,1.5,9.1,34,0.00,,,0.00,VWS V14.01,2013-06-21 15:19:00,
2013-06-21 18:24:00,83.3,52.0,29.93,NE,45,5.8,5.8,34,0.00,,,0.00,VWS V14.01,2013-06-21 15:24:00,
2013-06-21 18:29:00,83.3,52.8,29.93,NNE,22,2.2,7.6,35,0.00,,,0.00,VWS V14.01,2013-06-21 15:29:00,
2013-06-21 18:34:00,83.3,52.8,29.93,North,0,7.6,8.9,35,0.00,,,0.00,VWS V14.01,2013-06-21 15:34:00,
2013-06-21 18:39:00,83.3,53.5,29.93,NE,45,0.0,0.0,36,0.00,,,0.00,VWS V14.01,2013-06-21 15:39:00,
2013-06-21 18:45:00,83.3,53.5,29.93,NNE,22,0.2,0.2,36,0.00,,,0.00,VWS V14.01,2013-06-21 15:45:00,
2013-06-21 18:50:00,83.3,53.5,29.93,NNW,338,0.0,0.0,36,0.00,,,0.00,VWS V14.01,2013-06-21 15:50:00,
2013-06-21 18:55:00,83.1,53.4,29.93,ENE,68,2.0,4.4,36,0.00,,,0.00,VWS V14.01,2013-06-21 15:55:00,
2013-06-21 19:00:00,83.1,54.1,29.93,NNW,338,0.0,0.0,37,0.00,,,0.00,VWS V14.01,2013-06-21 16:00:00,
2013-06-21 19:05:00,83.3,53.5,29.93,NNW,338,0.0,0.0,36,0.00,,,0.00,VWS V14.01,2013-06-21 16:05:00,
2013-06-21 19:10:00,83.3,53.5,29.93,North,0,0.0,0.0,36,0.00,,,0.00,VWS V14.01,2013-06-21 16:10:00,
2013-06-21 19:15:00,83.3,52.8,29.94,East,90,0.0,0.0,35,0.00,,,0.00,VWS V14.01,2013-06-21 16:15:00,
2013-06-21 19:20:00,83.3,52.8,29.94,NW,315,0.0,0.0,35,0.00,,,0.00,VWS V14.01,2013-06-21 16:20:00,
2013-06-21 19:26:00,83.3,52.8,29.94,North,0,0.0,0.0,35,0.00,,,0.00,VWS V14.01,2013-06-21 16:26:00,
2013-06-21 19:31:00,83.1,51.8,29.94,North,0,0.0,0.0,34,0.00,,,0.00,VWS V14.01,2013-06-21 16:31:00,
2013-06-21 19:36:00,82.6,52.2,29.94,NNW,338,0.0,0.0,35,0.00,,,0.00,VWS V14.01,2013-06-21 16:36:00,
2013-06-21 19:41:00,82.4,52.0,29.94,NNW,338,1.5,1.5,35,0.00,,,0.00,VWS V14.01,2013-06-21 16:41:00,
2013-06-21 19:46:00,81.9,52.3,29.94,NNE,22,2.4,2.4,36,0.00,,,0.00,VWS V14.01,2013-06-21 16:46:00,
2013-06-21 19:51:00,81.3,51.8,29.94,North,0,3.5,7.8,36,0.00,,,0.00,VWS V14.01,2013-06-21 16:51:00,
2013-06-21 19:56:00,81.1,52.4,29.94,NE,45,4.9,5.5,37,0.00,,,0.00,VWS V14.01,2013-06-21 16:56:00,
2013-06-21 20:01:00,80.8,52.1,29.94,NE,45,2.4,6.4,37,0.00,,,0.00,VWS V14.01,2013-06-21 17:01:00,
2013-06-21 20:06:00,80.6,52.6,29.93,NE,45,6.2,6.2,38,0.00,,,0.00,VWS V14.01,2013-06-21 17:06:00,
2013-06-21 20:13:00,80.2,52.3,29.94,NNE,22,3.1,5.5,38,0.00,,,0.00,VWS V14.01,2013-06-21 17:13:00,
2013-06-21 20:18:00,80.1,52.9,29.94,NNE,22,5.8,5.8,39,0.00,,,0.00,VWS V14.01,2013-06-21 17:18:00,
2013-06-21 20:23:00,79.7,52.5,29.94,NNE,22,4.6,10.2,39,0.00,,,0.00,VWS V14.01,2013-06-21 17:23:00,
2013-06-21 20:29:00,79.3,52.9,29.94,NW,315,0.0,0.0,40,0.00,,,0.00,VWS V14.01,2013-06-21 17:29:00,
2013-06-21 20:37:00,79.0,52.6,29.94,North,0,0.0,0.0,40,0.00,,,0.00,VWS V14.01,2013-06-21 17:37:00,
2013-06-21 20:42:00,78.8,52.4,29.94,NW,315,3.8,3.8,40,0.00,,,0.00,VWS V14.01,2013-06-21 17:42:00,
2013-06-21 20:46:00,78.8,52.4,29.94,NNW,338,8.0,8.0,40,0.00,,,0.00,VWS V14.01,2013-06-21 17:46:00,
2013-06-21 20:47:00,78.8,52.4,29.93,NW,315,4.4,8.0,40,0.00,,,0.00,VWS V14.01,2013-06-21 17:47:00,
2013-06-21 20:48:00,78.6,52.2,29.94,NNW,338,3.1,3.1,40,0.00,,,0.00,VWS V14.01,2013-06-21 17:48:00,
2013-06-21 20:51:00,78.6,52.2,29.94,North,0,0.0,0.0,40,0.00,,,0.00,VWS V14.01,2013-06-21 17:51:00,
2013-06-21 20:56:00,78.4,52.1,29.94,NNW,338,2.4,2.4,40,0.00,,,0.00,VWS V14.01,2013-06-21 17:56:00,
2013-06-21 21:02:00,78.3,52.0,29.94,NW,315,0.0,0.0,40,0.00,,,0.00,VWS V14.01,2013-06-21 18:02:00,
2013-06-21 21:07:00,78.1,51.8,29.94,North,0,4.9,4.9,40,0.00,,,0.00,VWS V14.01,2013-06-21 18:07:00,
2013-06-21 21:13:00,78.1,51.8,29.94,North,0,1.3,1.3,40,0.00,,,0.00,VWS V14.01,2013-06-21 18:13:00,
2013-06-21 21:18:00,77.7,51.5,29.94,NNW,338,0.0,0.0,40,0.00,,,0.00,VWS V14.01,2013-06-21 18:18:00,
2013-06-21 21:23:00,77.5,51.9,29.95,WNW,292,0.0,0.0,41,0.00,,,0.00,VWS V14.01,2013-06-21 18:23:00,
2013-06-21 21:24:00,77.5,51.9,29.94,WNW,292,0.0,0.0,41,0.00,,,0.00,VWS V14.01,2013-06-21 18:24:00,
2013-06-21 21:26:00,77.5,51.9,29.94,WNW,292,0.0,0.0,41,0.00,,,0.00,VWS V14.01,2013-06-21 18:26:00,
2013-06-21 21:28:00,77.5,51.9,29.94,WNW,292,0.0,0.0,41,0.00,,,0.00,VWS V14.01,2013-06-21 18:28:00,
2013-06-21 21:33:00,77.2,51.7,29.95,WNW,292,0.0,0.0,41,0.00,,,0.00,VWS V14.01,2013-06-21 18:33:00,
2013-06-21 21:38:00,77.0,51.5,29.95,WNW,292,0.0,0.0,41,0.00,,,0.00,VWS V14.01,2013-06-21 18:38:00,
2013-06-21 21:43:00,77.0,51.5,29.95,WNW,292,0.0,0.0,41,0.00,,,0.00,VWS V14.01,2013-06-21 18:43:00,
2013-06-21 21:45:00,76.8,51.3,29.95,NW,315,0.0,0.0,41,0.00,,,0.00,VWS V14.01,2013-06-21 18:45:00,
2013-06-21 21:47:00,76.8,51.3,29.95,NW,315,0.0,0.0,41,0.00,,,0.00,VWS V14.01,2013-06-21 18:47:00,
2013-06-21 21:48:00,76.8,51.3,29.95,NW,315,0.0,0.0,41,0.00,,,0.00,VWS V14.01,2013-06-21 18:48:00,
2013-06-21 21:50:00,76.8,51.3,29.95,NW,315,0.0,0.0,41,0.00,,,0.00,VWS V14.01,2013-06-21 18:50:00,
2013-06-21 21:55:00,76.6,51.1,29.96,WNW,292,0.0,0.0,41,0.00,,,0.00,VWS V14.01,2013-06-21 18:55:00,
2013-06-21 22:00:00,76.5,51.7,29.96,WNW,292,0.0,0.0,42,0.00,,,0.00,VWS V14.01,2013-06-21 19:00:00,
2013-06-21 22:05:00,76.3,51.5,29.96,WNW,292,0.0,0.0,42,0.00,,,0.00,VWS V14.01,2013-06-21 19:05:00,
2013-06-21 22:10:00,76.3,50.2,29.96,NNW,338,0.0,0.0,40,0.00,,,0.00,VWS V14.01,2013-06-21 19:10:00,
2013-06-21 22:15:00,76.3,50.2,29.96,NNW,338,0.0,0.0,40,0.00,,,0.00,VWS V14.01,2013-06-21 19:15:00,
2013-06-21 22:21:00,76.3,50.2,29.95,NNW,338,0.8,0.8,40,0.00,,,0.00,VWS V14.01,2013-06-21 19:21:00,
2013-06-21 22:23:00,76.3,49.5,29.96,NNE,22,4.9,4.9,39,0.00,,,0.00,VWS V14.01,2013-06-21 19:23:00,
2013-06-21 22:28:00,76.6,50.5,29.96,NNE,22,0.0,0.0,40,0.00,,,0.00,VWS V14.01,2013-06-21 19:28:00,
2013-06-21 22:33:00,76.6,50.5,29.96,NE,45,0.0,0.0,40,0.00,,,0.00,VWS V14.01,2013-06-21 19:33:00,
2013-06-21 22:38:00,76.5,50.4,29.96,NE,45,0.0,0.0,40,0.00,,,0.00,VWS V14.01,2013-06-21 19:38:00,
2013-06-21 22:42:00,76.3,50.9,29.96,NE,45,2.2,5.8,41,0.00,,,0.00,VWS V14.01,2013-06-21 19:42:00,
2013-06-21 22:43:00,76.1,50.7,29.96,NE,45,0.6,2.2,41,0.00,,,0.00,VWS V14.01,2013-06-21 19:43:00,
2013-06-21 22:48:00,76.1,50.7,29.96,NE,45,0.0,0.0,41,0.00,,,0.00,VWS V14.01,2013-06-21 19:48:00,
2013-06-21 22:53:00,75.7,50.3,29.96,NE,45,7.8,7.8,41,0.00,,,0.00,VWS V14.01,2013-06-21 19:53:00,
2013-06-21 22:58:00,75.7,49.7,29.96,NE,45,0.0,0.0,40,0.00,,,0.00,VWS V14.01,2013-06-21 19:58:00,
2013-06-21 23:03:00,76.1,50.0,29.96,NNE,22,0.0,0.0,40,0.00,,,0.00,VWS V14.01,2013-06-21 20:03:00,
2013-06-21 23:04:00,76.1,50.0,29.96,NNE,22,0.0,0.0,40,0.00,,,0.00,VWS V14.01,2013-06-21 20:04:00,
2013-06-21 23:10:00,76.1,48.6,29.96,North,0,0.4,0.4,38,0.00,,,0.00,VWS V14.01,2013-06-21 20:10:00,
2013-06-21 23:14:00,76.3,48.8,29.96,NNE,22,0.0,0.0,38,0.00,,,0.00,VWS V14.01,2013-06-21 20:14:00,
2013-06-21 23:19:00,75.7,49.7,29.96,NNE,22,0.0,0.0,40,0.00,,,0.00,VWS V14.01,2013-06-21 20:19:00,
2013-06-21 23:24:00,75.4,49.4,29.96,NNW,338,6.0,6.0,40,0.00,,,0.00,VWS V14.01,2013-06-21 20:24:00,
2013-06-21 23:29:00,75.4,49.4,29.96,WNW,292,0.0,0.0,40,0.00,,,0.00,VWS V14.01,2013-06-21 20:29:00,
2013-06-21 23:34:00,75.4,49.4,29.96,NNE,22,4.4,4.4,40,0.00,,,0.00,VWS V14.01,2013-06-21 20:34:00,
2013-06-21 23:39:00,76.6,49.1,29.96,NE,45,3.5,6.7,38,0.00,,,0.00,VWS V14.01,2013-06-21 20:39:00,
2013-06-21 23:44:00,77.0,49.4,29.96,North,0,0.4,0.4,38,0.00,,,0.00,VWS V14.01,2013-06-21 20:44:00,
2013-06-21 23:50:00,77.2,49.6,29.96,North,0,0.0,0.0,38,0.00,,,0.00,VWS V14.01,2013-06-21 20:50:00,
2013-06-21 23:55:00,77.4,49.8,29.96,NE,45,5.5,8.9,38,0.00,,,0.00,VWS V14.01,2013-06-21 20:55:00,